Terminal Aerodrome Forecast
Issued by NWS Cleveland, OH

Home | Current Version | Previous Version | Graphics & Text | Print | Product List | Glossary On
Versions: 1 2 3 4 5 6 7 8 9 10 11 12 13 14 15 16 17 18 19 20 21 22 23 24 25
000
FTUS41 KCLE 261611 AAB
TAFCLE
TAF AMD
KCLE 261611Z 2616/2718 35008KT P6SM SCT025 BKN060
     FM261800 35008KT P6SM SCT060
     FM262300 36005KT P6SM SKC
     FM270100 VRB03KT P6SM SKC
     FM271600 03010KT P6SM SKC=

USA.gov is the U.S. government's official web portal to all federal, state and local government web resources and services.